createdAt,value
2018-07-09T00:02:10.431Z,101739.47
2018-07-09T00:04:39.464Z,101739.34
2018-07-09T00:07:08.534Z,101741.63
2018-07-09T00:09:37.052Z,101742.10
2018-07-09T00:12:06.137Z,101743.39
2018-07-09T00:14:35.059Z,101752.44
2018-07-09T00:17:03.687Z,101745.95
2018-07-09T00:19:32.236Z,101743.40
2018-07-09T00:22:00.754Z,101748.23
2018-07-09T00:24:29.265Z,101751.41
2018-07-09T00:26:58.355Z,101751.89
2018-07-09T00:29:28.157Z,101750.55
2018-07-09T00:31:56.747Z,101753.19
2018-07-09T00:34:25.277Z,101755.38
2018-07-09T00:36:53.837Z,101755.75
2018-07-09T00:46:09.883Z,101745.36
2018-07-09T00:48:38.338Z,101752.75
2018-07-09T00:51:06.943Z,101749.69
2018-07-09T00:53:35.445Z,101746.38
2018-07-09T00:56:04.927Z,101747.27
2018-07-09T00:58:33.760Z,101739.48
2018-07-09T01:01:02.337Z,101735.16
2018-07-09T01:03:32.398Z,101737.66
2018-07-09T01:06:00.969Z,101735.09
2018-07-09T01:08:29.578Z,101736.42
2018-07-09T01:11:09.869Z,101731.60
2018-07-09T01:13:44.899Z,101729.91
2018-07-09T01:16:13.925Z,101730.73
2018-07-09T01:18:43.056Z,101725.47
2018-07-09T01:21:13.307Z,101726.45
2018-07-09T01:23:43.325Z,101727.70
2018-07-09T01:26:12.644Z,101730.38
2018-07-09T01:28:42.524Z,101725.69
2018-07-09T01:31:12.324Z,101722.16
2018-07-09T01:33:41.603Z,101723.85
2018-07-09T01:36:11.769Z,101720.79
2018-07-09T01:38:42.126Z,101727.88
2018-07-09T01:41:11.461Z,101724.09
2018-07-09T01:43:40.126Z,101720.23
2018-07-09T01:46:09.768Z,101719.34
2018-07-09T01:48:38.335Z,101712.85
2018-07-09T01:51:07.531Z,101721.03
2018-07-09T01:53:36.558Z,101712.39
2018-07-09T01:56:05.252Z,101713.78
2018-07-09T01:58:34.175Z,101712.95
2018-07-09T02:01:02.753Z,101719.80
2018-07-09T02:03:31.412Z,101712.08
2018-07-09T02:06:00.657Z,101720.73
2018-07-09T02:08:29.324Z,101721.93
2018-07-09T02:10:58.022Z,101724.42
2018-07-09T02:13:26.697Z,101725.82
2018-07-09T02:15:56.145Z,101726.38
2018-07-09T02:18:24.601Z,101720.27
2018-07-09T02:20:53.183Z,101718.47
2018-07-09T02:23:21.772Z,101715.27
2018-07-09T02:25:51.475Z,101717.53
2018-07-09T02:28:20.616Z,101712.31
2018-07-09T02:30:49.975Z,101701.81
2018-07-09T02:33:18.544Z,101694.03
2018-07-09T02:35:47.244Z,101697.45
2018-07-09T02:38:15.777Z,101695.82
2018-07-09T02:40:44.972Z,101689.28
2018-07-09T02:43:14.683Z,101694.06
2018-07-09T02:45:43.427Z,101693.20
2018-07-09T02:48:12.118Z,101696.62
2018-07-09T02:50:40.925Z,101701.81
2018-07-09T02:53:09.392Z,101704.43
2018-07-09T02:55:38.141Z,101706.30
2018-07-09T02:58:06.664Z,101712.39
2018-07-09T03:00:35.460Z,101714.98
2018-07-09T03:03:05.151Z,101715.48
2018-07-09T03:05:34.420Z,101713.81
2018-07-09T03:08:03.485Z,101715.55
2018-07-09T03:10:32.555Z,101716.40
2018-07-09T03:13:01.227Z,101721.48
2018-07-09T03:15:29.972Z,101725.73
2018-07-09T03:17:59.926Z,101729.19
2018-07-09T03:20:28.687Z,101730.58
2018-07-09T03:22:58.479Z,101728.37
2018-07-09T03:25:27.711Z,101732.64
2018-07-09T03:27:56.526Z,101741.39
2018-07-09T03:31:54.911Z,101744.89
2018-07-09T03:34:23.780Z,101745.69
2018-07-09T03:36:53.620Z,101735.67
2018-07-09T03:39:24.244Z,101728.75
2018-07-09T03:41:54.204Z,101735.73
2018-07-09T03:44:23.088Z,101730.94
2018-07-09T03:46:51.864Z,101735.69
2018-07-09T03:49:21.309Z,101728.76
2018-07-09T03:51:49.862Z,101727.43
2018-07-09T03:54:19.335Z,101730.81
2018-07-09T03:56:47.841Z,101731.30
2018-07-09T03:59:17.096Z,101730.45
2018-07-09T04:01:46.109Z,101733.53
2018-07-09T04:04:14.980Z,101730.91
2018-07-09T04:06:44.026Z,101737.42
2018-07-09T04:09:13.433Z,101733.17
2018-07-09T04:11:42.019Z,101740.16
2018-07-09T04:14:11.163Z,101739.70
2018-07-09T04:16:39.939Z,101732.79
2018-07-09T04:19:08.521Z,101737.42
2018-07-09T04:23:06.196Z,101724.92
2018-07-09T04:25:34.728Z,101732.64
2018-07-09T04:28:03.285Z,101731.73
2018-07-09T04:30:32.890Z,101723.90
2018-07-09T04:33:02.505Z,101727.27
2018-07-09T04:35:37.952Z,101723.75
2018-07-09T04:38:09.612Z,101728.94
2018-07-09T04:40:38.132Z,101724.25
2018-07-09T04:43:08.069Z,101729.22
2018-07-09T04:45:36.669Z,101730.22
2018-07-09T04:48:06.406Z,101733.65
2018-07-09T04:50:35.791Z,101731.94
2018-07-09T04:53:04.363Z,101731.50
2018-07-09T04:55:32.917Z,101731.95
2018-07-09T04:58:01.634Z,101731.15
2018-07-09T05:00:30.634Z,101728.06
2018-07-09T05:02:59.305Z,101728.98
2018-07-09T05:05:28.071Z,101725.95
2018-07-09T05:07:58.112Z,101722.89
2018-07-09T05:10:26.705Z,101715.11
2018-07-09T05:12:55.951Z,101716.78
2018-07-09T05:15:25.158Z,101716.80
2018-07-09T05:17:53.801Z,101716.31
2018-07-09T05:20:22.957Z,101716.20
2018-07-09T05:22:51.541Z,101713.59
2018-07-09T05:25:20.995Z,101713.09
2018-07-09T05:27:50.340Z,101713.07
2018-07-09T05:30:18.882Z,101710.13
2018-07-09T05:32:47.706Z,101708.31
2018-07-09T05:35:16.293Z,101717.80
2018-07-09T05:37:48.348Z,101719.09
2018-07-09T05:40:19.315Z,101720.04
2018-07-09T05:42:50.570Z,101714.07
2018-07-09T05:45:20.505Z,101714.95
2018-07-09T05:47:51.138Z,101711.00
2018-07-09T05:50:20.014Z,101710.91
2018-07-09T05:52:49.522Z,101710.39
2018-07-09T05:55:18.371Z,101715.52
2018-07-09T05:57:47.044Z,101714.08
2018-07-09T06:00:17.077Z,101716.94
2018-07-09T06:02:46.158Z,101713.98
2018-07-09T06:05:16.146Z,101716.64
2018-07-09T06:07:45.925Z,101713.95
2018-07-09T06:10:14.844Z,101715.13
2018-07-09T06:12:43.373Z,101713.80
2018-07-09T06:15:13.769Z,101714.70
2018-07-09T06:17:43.754Z,101709.50
2018-07-09T06:20:13.470Z,101708.17
2018-07-09T06:22:42.228Z,101704.63
2018-07-09T06:25:11.669Z,101709.70
2018-07-09T06:27:41.277Z,101712.29
2018-07-09T06:30:10.870Z,101704.85
2018-07-09T06:32:39.402Z,101701.30
2018-07-09T06:35:07.967Z,101702.91
2018-07-09T06:37:39.033Z,101700.17
2018-07-09T06:40:07.648Z,101702.75
2018-07-09T06:42:37.264Z,101712.23
2018-07-09T06:45:07.910Z,101718.34
2018-07-09T06:47:37.603Z,101707.52
2018-07-09T06:50:12.055Z,101706.08
2018-07-09T06:52:47.805Z,101711.55
2018-07-09T06:55:18.223Z,101702.03
2018-07-09T06:57:50.624Z,101693.80
2018-07-09T07:00:21.880Z,101696.25
2018-07-09T07:02:50.917Z,101691.42
2018-07-09T07:05:20.552Z,101687.41
2018-07-09T07:07:49.167Z,101690.65
2018-07-09T07:10:18.307Z,101693.17
2018-07-09T07:12:48.631Z,101695.23
2018-07-09T07:15:19.007Z,101698.08
2018-07-09T07:17:47.531Z,101685.33
2018-07-09T07:20:16.653Z,101684.71
2018-07-09T07:22:45.259Z,101697.35
2018-07-09T07:25:14.111Z,101688.47
2018-07-09T07:27:42.568Z,101690.58
2018-07-09T07:30:11.208Z,101691.58
2018-07-09T07:32:40.279Z,101683.84
2018-07-09T07:35:08.778Z,101684.20
2018-07-09T07:37:37.224Z,101681.09
2018-07-09T07:40:05.901Z,101679.23
2018-07-09T07:42:34.425Z,101662.47
2018-07-09T07:45:02.907Z,101657.59
2018-07-09T07:47:32.371Z,101654.92
2018-07-09T07:50:01.839Z,101657.62
2018-07-09T07:52:30.584Z,101658.61
2018-07-09T07:54:59.969Z,101645.36
2018-07-09T07:57:31.928Z,101656.01
2018-07-09T08:00:02.173Z,101648.90
2018-07-09T08:02:31.098Z,101639.33
2018-07-09T08:05:00.960Z,101646.80
2018-07-09T08:07:30.614Z,101640.32
2018-07-09T08:10:00.311Z,101640.05
2018-07-09T08:15:00.061Z,101629.84
2018-07-09T08:17:29.645Z,101636.63
2018-07-09T08:19:58.226Z,101640.01
2018-07-09T08:22:26.991Z,101635.21
2018-07-09T08:24:55.743Z,101630.80
2018-07-09T08:27:24.237Z,101631.83
2018-07-09T08:29:52.820Z,101631.58
2018-07-09T08:32:22.954Z,101633.13
2018-07-09T08:34:52.191Z,101622.23
2018-07-09T08:37:21.201Z,101630.16
2018-07-09T08:39:50.705Z,101631.97
2018-07-09T08:42:19.412Z,101626.47
2018-07-09T08:44:52.769Z,101623.38
2018-07-09T08:47:22.512Z,101627.97
2018-07-09T08:49:51.984Z,101621.70
2018-07-09T08:52:21.322Z,101631.60
2018-07-09T08:54:50.190Z,101636.43
2018-07-09T08:57:18.800Z,101625.72
2018-07-09T08:59:47.438Z,101613.65
2018-07-09T09:02:17.638Z,101620.06
2018-07-09T09:04:46.404Z,101609.56
2018-07-09T09:07:16.006Z,101616.56
2018-07-09T09:09:45.511Z,101613.42
2018-07-09T09:12:14.328Z,101610.61
2018-07-09T09:14:44.590Z,101616.19
2018-07-09T09:17:14.592Z,101614.44
2018-07-09T09:19:44.649Z,101612.84
2018-07-09T09:22:14.338Z,101611.77
2018-07-09T09:24:43.644Z,101609.08
2018-07-09T09:27:13.425Z,101620.05
2018-07-09T09:29:43.829Z,101617.08
2018-07-09T09:32:14.438Z,101617.83
2018-07-09T09:34:44.478Z,101610.17
2018-07-09T09:37:14.639Z,101623.84
2018-07-09T09:39:44.690Z,101625.20
2018-07-09T09:42:13.493Z,101630.04
2018-07-09T09:44:42.323Z,101631.73
2018-07-09T09:47:12.125Z,101624.05
2018-07-09T09:49:41.125Z,101619.89
2018-07-09T09:52:09.742Z,101633.37
2018-07-09T09:54:39.124Z,101627.30
2018-07-09T09:57:09.300Z,101619.11
2018-07-09T09:59:38.635Z,101617.02
2018-07-09T10:02:07.750Z,101617.96
2018-07-09T10:04:36.968Z,101622.75
2018-07-09T10:07:06.112Z,101604.84
2018-07-09T10:09:34.697Z,101607.64
2018-07-09T10:12:03.264Z,101610.31
2018-07-09T10:14:31.846Z,101609.23
2018-07-09T10:17:00.410Z,101611.12
2018-07-09T10:19:31.010Z,101613.86
2018-07-09T10:22:00.073Z,101618.95
2018-07-09T10:24:28.658Z,101613.94
2018-07-09T10:26:57.233Z,101612.63
2018-07-09T10:29:25.837Z,101602.03
2018-07-09T10:31:54.328Z,101590.64
2018-07-09T10:34:23.690Z,101592.32
2018-07-09T10:36:52.151Z,101591.97
2018-07-09T10:39:21.775Z,101593.34
2018-07-09T10:41:50.337Z,101575.80
2018-07-09T10:44:19.853Z,101586.91
2018-07-09T10:46:49.303Z,101588.77
2018-07-09T10:49:18.080Z,101584.88
2018-07-09T10:51:46.827Z,101575.08
2018-07-09T10:54:16.689Z,101572.87
2018-07-09T10:56:46.226Z,101578.43
2018-07-09T10:59:15.140Z,101575.86
2018-07-09T11:01:44.758Z,101557.00
2018-07-09T11:04:14.776Z,101550.83
2018-07-09T11:06:44.517Z,101543.89
2018-07-09T11:09:14.268Z,101536.78
2018-07-09T11:11:43.605Z,101545.10
2018-07-09T11:14:12.102Z,101541.45
2018-07-09T11:16:41.422Z,101534.33
2018-07-09T11:19:10.252Z,101537.09
2018-07-09T11:21:38.889Z,101529.19
2018-07-09T11:24:07.512Z,101533.36
2018-07-09T11:26:36.320Z,101546.23
2018-07-09T11:29:05.426Z,101541.55
2018-07-09T11:31:36.378Z,101546.95
2018-07-09T11:34:05.027Z,101538.25
2018-07-09T11:36:33.759Z,101540.31
2018-07-09T11:39:02.797Z,101543.23
2018-07-09T11:41:32.816Z,101546.29
2018-07-09T11:44:01.356Z,101532.39
2018-07-09T11:46:30.727Z,101531.52
2018-07-09T11:48:59.521Z,101520.78
2018-07-09T11:51:28.118Z,101517.87
2018-07-09T11:53:57.139Z,101515.05
2018-07-09T11:56:25.907Z,101509.72
2018-07-09T11:58:55.367Z,101508.08
2018-07-09T12:01:23.889Z,101509.38
2018-07-09T12:03:52.663Z,101509.42
2018-07-09T12:06:21.245Z,101505.98
2018-07-09T12:08:51.357Z,101509.00
2018-07-09T12:11:19.873Z,101515.47
2018-07-09T12:13:48.607Z,101509.64
2018-07-09T12:16:18.190Z,101510.91
2018-07-09T12:18:47.290Z,101510.91
2018-07-09T12:21:16.011Z,101509.64
2018-07-09T12:23:44.564Z,101502.72
2018-07-09T12:26:14.049Z,101498.46
2018-07-09T12:30:12.056Z,101501.94
2018-07-09T12:32:40.660Z,101507.17
2018-07-09T12:35:10.185Z,101508.81
2018-07-09T12:37:38.900Z,101510.69
2018-07-09T12:40:07.592Z,101503.73
2018-07-09T12:42:36.141Z,101502.20
2018-07-09T12:45:04.939Z,101501.05
2018-07-09T12:47:34.423Z,101507.33
2018-07-09T12:50:03.269Z,101502.34
2018-07-09T12:52:31.945Z,101502.22
2018-07-09T12:55:00.752Z,101496.54
2018-07-09T12:57:29.392Z,101499.50
2018-07-09T12:59:58.265Z,101492.84
2018-07-09T13:02:27.486Z,101481.27
2018-07-09T13:04:56.224Z,101486.78
2018-07-09T13:07:29.737Z,101484.48
2018-07-09T13:09:58.673Z,101492.02
2018-07-09T13:12:27.552Z,101472.23
2018-07-09T13:14:58.573Z,101468.79
2018-07-09T13:17:28.228Z,101475.45
2018-07-09T13:19:57.782Z,101477.17
2018-07-09T13:22:27.585Z,101475.13
2018-07-09T13:24:56.590Z,101471.78
2018-07-09T13:27:26.517Z,101456.27
2018-07-09T13:29:55.636Z,101456.68
2018-07-09T13:32:25.284Z,101457.09
2018-07-09T13:34:55.135Z,101453.77
2018-07-09T13:37:23.794Z,101448.86
2018-07-09T13:39:53.605Z,101449.84
2018-07-09T13:42:22.737Z,101445.06
2018-07-09T13:44:51.461Z,101450.18
2018-07-09T13:47:20.424Z,101449.36
2018-07-09T13:49:49.442Z,101444.20
2018-07-09T13:52:18.107Z,101441.50
2018-07-09T13:54:46.747Z,101440.77
2018-07-09T13:57:15.460Z,101444.45
2018-07-09T13:59:44.216Z,101438.10
2018-07-09T14:02:13.741Z,101445.17
2018-07-09T14:04:42.513Z,101436.55
2018-07-09T14:07:11.140Z,101430.53
2018-07-09T14:09:39.749Z,101426.73
2018-07-09T14:12:08.508Z,101422.34
2018-07-09T14:14:37.219Z,101419.69
2018-07-09T14:17:07.789Z,101415.41
2018-07-09T14:20:46.124Z,101414.95
2018-07-09T14:23:16.396Z,101409.39
2018-07-09T14:25:45.519Z,101401.62
2018-07-09T14:28:14.041Z,101422.50
2018-07-09T14:30:43.104Z,101415.69
2018-07-09T14:33:12.520Z,101418.92
2018-07-09T14:35:41.647Z,101417.26
2018-07-09T14:38:10.366Z,101421.69
2018-07-09T14:40:39.072Z,101409.72
2018-07-09T14:43:07.598Z,101409.98
2018-07-09T14:45:42.234Z,101412.15
2018-07-09T14:48:10.836Z,101408.86
2018-07-09T14:50:39.347Z,101398.31
2018-07-09T14:53:07.896Z,101413.19
2018-07-09T14:55:36.595Z,101397.05
2018-07-09T14:58:05.492Z,101395.73
2018-07-09T15:00:34.656Z,101397.21
2018-07-09T15:03:03.305Z,101395.53
2018-07-09T15:05:35.402Z,101398.97
2018-07-09T15:08:04.412Z,101391.38
2018-07-09T15:10:33.087Z,101395.09
2018-07-09T15:13:02.128Z,101390.61
2018-07-09T15:15:31.992Z,101389.88
2018-07-09T15:18:00.857Z,101389.27
2018-07-09T15:20:29.378Z,101386.66
2018-07-09T15:22:58.099Z,101385.85
2018-07-09T15:25:26.723Z,101388.34
2018-07-09T15:27:55.216Z,101391.70
2018-07-09T15:30:23.946Z,101391.12
2018-07-09T15:32:52.500Z,101386.00
2018-07-09T15:35:21.256Z,101399.92
2018-07-09T15:37:49.815Z,101396.11
2018-07-09T15:40:18.329Z,101387.16
2018-07-09T15:42:47.009Z,101383.61
2018-07-09T15:45:15.559Z,101389.92
2018-07-09T15:47:44.211Z,101385.12
2018-07-09T15:50:12.853Z,101385.79
2018-07-09T15:52:43.790Z,101379.44
2018-07-09T15:55:12.414Z,101383.36
2018-07-09T15:57:41.095Z,101378.09
2018-07-09T16:00:09.997Z,101381.12
2018-07-09T16:02:38.574Z,101379.89
2018-07-09T16:05:08.827Z,101378.03
2018-07-09T16:07:38.046Z,101368.06
2018-07-09T16:10:06.817Z,101373.88
2018-07-09T16:12:35.429Z,101363.32
2018-07-09T16:15:03.986Z,101366.75
2018-07-09T16:17:33.550Z,101352.16
2018-07-09T16:20:03.721Z,101353.20
2018-07-09T16:22:33.381Z,101348.23
2018-07-09T16:25:02.399Z,101348.27
2018-07-09T16:27:30.988Z,101344.42
2018-07-09T16:30:00.555Z,101351.85
2018-07-09T16:32:30.268Z,101347.03
2018-07-09T16:34:58.936Z,101366.66
2018-07-09T16:37:27.475Z,101358.38
2018-07-09T16:39:57.434Z,101340.24
2018-07-09T16:42:26.100Z,101343.86
2018-07-09T16:44:56.017Z,101334.38
2018-07-09T16:47:25.239Z,101334.59
2018-07-09T16:49:54.807Z,101337.80
2018-07-09T16:52:23.925Z,101338.59
2018-07-09T16:54:53.810Z,101336.53
2018-07-09T16:57:22.546Z,101334.22
2018-07-09T16:59:52.051Z,101335.59
2018-07-09T17:02:21.499Z,101335.47
2018-07-09T17:04:51.198Z,101340.42
2018-07-09T17:07:20.077Z,101342.90
2018-07-09T17:10:03.969Z,101337.81
2018-07-09T17:12:33.476Z,101338.50
2018-07-09T17:15:02.694Z,101343.92
2018-07-09T17:17:33.398Z,101339.84
2018-07-09T17:20:02.145Z,101341.77
2018-07-09T17:22:30.667Z,101334.64
2018-07-09T17:24:59.217Z,101346.55
2018-07-09T17:27:28.017Z,101340.09
2018-07-09T17:29:57.059Z,101344.29
2018-07-09T17:32:25.647Z,101326.58
2018-07-09T17:34:54.346Z,101320.47
2018-07-09T17:37:23.226Z,101329.05
2018-07-09T17:39:53.211Z,101328.87
2018-07-09T17:42:22.794Z,101324.16
2018-07-09T17:44:51.285Z,101321.05
2018-07-09T17:47:19.895Z,101322.31
2018-07-09T17:49:48.574Z,101319.52
2018-07-09T17:52:17.253Z,101322.16
2018-07-09T17:54:46.073Z,101327.70
2018-07-09T17:57:15.322Z,101329.67
2018-07-09T17:59:43.960Z,101334.83
2018-07-09T18:02:12.478Z,101341.06
2018-07-09T18:04:42.258Z,101337.25
2018-07-09T18:07:11.084Z,101334.92
2018-07-09T18:09:39.680Z,101334.41
2018-07-09T18:12:08.303Z,101332.13
2018-07-09T18:14:36.864Z,101334.22
2018-07-09T18:17:05.566Z,101324.41
2018-07-09T18:19:35.031Z,101327.33
2018-07-09T18:22:03.610Z,101332.48
2018-07-09T18:24:32.701Z,101336.16
2018-07-09T18:27:06.104Z,101329.22
2018-07-09T18:29:35.427Z,101329.02
2018-07-09T18:32:04.073Z,101327.89
2018-07-09T18:34:33.844Z,101325.52
2018-07-09T18:37:03.018Z,101332.15
2018-07-09T18:39:31.519Z,101321.81
2018-07-09T18:42:00.241Z,101321.70
2018-07-09T18:44:30.115Z,101332.33
2018-07-09T18:46:59.203Z,101330.05
2018-07-09T18:49:28.739Z,101331.87
2018-07-09T18:51:57.758Z,101334.42
2018-07-09T18:54:27.747Z,101340.70
2018-07-09T18:56:57.171Z,101336.65
2018-07-09T18:59:25.780Z,101332.13
2018-07-09T19:01:54.831Z,101337.17
2018-07-09T19:04:24.751Z,101329.70
2018-07-09T19:06:59.235Z,101324.05
2018-07-09T19:09:30.596Z,101323.50
2018-07-09T19:12:05.088Z,101317.88
2018-07-09T19:14:43.598Z,101316.39
2018-07-09T19:19:25.788Z,101313.14
2018-07-09T19:22:00.941Z,101318.46
2018-07-09T19:24:29.123Z,101322.78
2018-07-09T19:26:57.117Z,101326.80
2018-07-09T19:29:25.221Z,101323.31
2018-07-09T19:31:52.641Z,101321.48
2018-07-09T19:34:20.071Z,101325.99
2018-07-09T19:36:47.620Z,101327.98
2018-07-09T19:39:15.804Z,101326.94
2018-07-09T19:41:43.820Z,101329.98
2018-07-09T19:44:11.327Z,101324.94
2018-07-09T19:46:39.181Z,101330.23
2018-07-09T19:49:08.161Z,101332.37
2018-07-09T19:51:36.166Z,101332.69
2018-07-09T19:54:03.491Z,101325.66
2018-07-09T19:56:30.913Z,101330.50
2018-07-09T19:58:59.356Z,101324.50
2018-07-09T20:01:26.676Z,101329.82
2018-07-09T20:03:54.220Z,101321.19
2018-07-09T20:06:23.341Z,101316.69
2018-07-09T20:08:56.040Z,101322.96
2018-07-09T20:11:29.446Z,101324.91
2018-07-09T20:14:02.904Z,101325.47
2018-07-09T20:16:37.766Z,101322.42
2018-07-09T20:19:05.036Z,101317.15
2018-07-09T20:21:33.736Z,101324.16
2018-07-09T20:24:01.366Z,101320.91
2018-07-09T20:26:28.758Z,101319.46
2018-07-09T20:28:57.756Z,101320.25
2018-07-09T20:31:26.264Z,101317.28
2018-07-09T20:33:53.934Z,101318.77
2018-07-09T20:36:22.377Z,101315.58
2018-07-09T20:38:49.697Z,101318.14
2018-07-09T20:41:17.005Z,101312.15
2018-07-09T20:43:45.841Z,101316.78
2018-07-09T20:46:13.650Z,101305.33
2018-07-09T20:48:40.929Z,101298.90
2018-07-09T20:51:09.223Z,101307.50
2018-07-09T20:53:37.863Z,101311.41
2018-07-09T20:56:05.805Z,101309.72
2018-07-09T20:58:33.892Z,101310.33
2018-07-09T21:01:01.745Z,101314.80
2018-07-09T21:03:30.189Z,101310.78
2018-07-09T21:05:58.960Z,101311.04
2018-07-09T21:08:26.378Z,101308.62
2018-07-09T21:10:54.073Z,101303.15
2018-07-09T21:13:21.381Z,101300.78
2018-07-09T21:15:48.812Z,101296.68
2018-07-09T21:18:16.009Z,101293.72
2018-07-09T21:20:43.738Z,101301.61
2018-07-09T21:23:11.888Z,101303.56
2018-07-09T21:25:39.508Z,101303.98
2018-07-09T21:28:08.275Z,101300.09
2018-07-09T21:30:35.779Z,101305.34
2018-07-09T21:33:04.067Z,101297.86
2018-07-09T21:35:32.418Z,101302.09
2018-07-09T21:38:01.807Z,101294.81
2018-07-09T21:40:29.431Z,101299.30
2018-07-09T21:42:57.843Z,101297.21
2018-07-09T21:45:25.336Z,101285.09
2018-07-09T21:47:59.219Z,101289.20
2018-07-09T21:50:20.112Z,101284.93
2018-07-09T21:52:47.453Z,101294.33
2018-07-09T21:55:14.866Z,101283.87
2018-07-09T21:57:42.466Z,101276.92
2018-07-09T22:00:10.540Z,101275.62
2018-07-09T22:02:38.411Z,101276.63
2018-07-09T22:05:05.852Z,101280.92
2018-07-09T22:07:35.019Z,101269.72
2018-07-09T22:10:02.487Z,101277.30
2018-07-09T22:12:29.803Z,101288.76
2018-07-09T22:14:57.114Z,101283.51
2018-07-09T22:17:24.403Z,101282.27
2018-07-09T22:19:52.686Z,101271.95
2018-07-09T22:22:21.379Z,101278.89
2018-07-09T22:24:48.701Z,101270.86
2018-07-09T22:27:16.022Z,101281.49
2018-07-09T22:29:43.306Z,101287.11
2018-07-09T22:32:11.923Z,101280.75
2018-07-09T22:34:40.444Z,101282.98
2018-07-09T22:37:09.001Z,101279.10
2018-07-09T22:39:37.851Z,101276.14
2018-07-09T22:42:06.398Z,101272.11
2018-07-09T22:44:34.927Z,101270.22
2018-07-09T22:47:05.048Z,101271.16
2018-07-09T22:49:33.583Z,101268.92
2018-07-09T22:52:02.084Z,101277.29
2018-07-09T22:54:30.614Z,101279.84
2018-07-09T22:56:59.152Z,101271.55
2018-07-09T22:59:27.669Z,101270.31
2018-07-09T23:01:56.217Z,101277.55
2018-07-09T23:04:25.151Z,101264.30
2018-07-09T23:06:53.793Z,101260.97
2018-07-09T23:11:36.460Z,101248.28
2018-07-09T23:16:48.949Z,101254.06
2018-07-09T23:19:29.792Z,101255.01
2018-07-09T23:22:09.632Z,101252.04
2018-07-09T23:24:36.967Z,101246.69
2018-07-09T23:27:04.297Z,101239.30
2018-07-09T23:29:31.660Z,101242.91
2018-07-09T23:31:58.983Z,101241.60
2018-07-09T23:34:26.287Z,101232.43
2018-07-09T23:36:53.574Z,101229.52
2018-07-09T23:39:20.826Z,101228.48
2018-07-09T23:41:48.476Z,101230.55
2018-07-09T23:44:15.785Z,101234.77
2018-07-09T23:46:43.117Z,101226.98
2018-07-09T23:49:11.707Z,101229.40
2018-07-09T23:51:39.094Z,101223.73
2018-07-09T23:54:07.609Z,101225.45
2018-07-09T23:59:50.460Z,101225.35
